Time;durP1;ratioP1;P1;durP2;ratioP2;P2;SDS_P1;SDS_P2;PMS_P1;PMS_P2;Temp;Humidity;BMP_temperature;BMP_pressure;BME280_temperature;BME280_humidity;BME280_pressure;Samples;Min_cycle;Max_cycle;Signal;HPM_P1;HPM_P2
2022/01/01 00:01:44;;;;;;;11.30;9.90;;;9.80;99.90;;;;;;5095447;28;20223;-73
2022/01/01 00:04:10;;;;;;;13.67;10.20;;;9.80;99.90;;;;;;5095186;28;20262;-72
2022/01/01 00:06:38;;;;;;;14.23;10.67;;;9.80;99.90;;;;;;5094669;28;20561;-72
2022/01/01 00:09:05;;;;;;;10.80;9.70;;;9.90;99.90;;;;;;5094250;28;20189;-72
2022/01/01 00:11:33;;;;;;;12.20;9.03;;;9.90;99.90;;;;;;5094624;28;20200;-70
2022/01/01 00:14:00;;;;;;;11.13;9.27;;;9.90;99.90;;;;;;5094231;28;20218;-70
2022/01/01 00:16:26;;;;;;;11.60;8.70;;;9.90;99.90;;;;;;5094819;28;20193;-71
2022/01/01 00:18:53;;;;;;;10.13;8.73;;;10.00;99.90;;;;;;5094247;28;20204;-72
2022/01/01 00:21:19;;;;;;;10.67;8.73;;;10.00;99.90;;;;;;5094175;28;20193;-70
2022/01/01 00:23:46;;;;;;;9.33;8.23;;;10.00;99.90;;;;;;5094200;28;20250;-71
2022/01/01 00:26:14;;;;;;;9.90;7.70;;;10.00;99.90;;;;;;5094188;28;20216;-73
2022/01/01 00:28:42;;;;;;;11.63;8.87;;;9.90;99.90;;;;;;5094612;28;20193;-71
2022/01/01 00:31:09;;;;;;;10.37;8.87;;;9.90;99.90;;;;;;5094019;28;20196;-71
2022/01/01 00:33:35;;;;;;;12.37;9.10;;;9.90;99.90;;;;;;5093833;28;20196;-71
2022/01/01 00:36:02;;;;;;;8.90;8.00;;;9.90;99.90;;;;;;5093510;28;20185;-71
2022/01/01 00:38:29;;;;;;;11.40;9.20;;;10.00;99.90;;;;;;5093133;28;20196;-71
2022/01/01 00:40:56;;;;;;;9.57;8.57;;;10.00;99.90;;;;;;5094178;28;20222;-72
2022/01/01 00:43:24;;;;;;;9.97;7.73;;;9.90;99.90;;;;;;5093635;28;20188;-72
2022/01/01 00:45:52;;;;;;;9.77;8.40;;;10.00;99.90;;;;;;5093634;28;20269;-72
2022/01/01 00:48:19;;;;;;;9.93;8.77;;;10.00;99.90;;;;;;5085917;28;20200;-73
2022/01/01 00:50:45;;;;;;;10.70;8.20;;;10.00;99.90;;;;;;5093571;28;20241;-72
2022/01/01 00:53:12;;;;;;;9.50;8.13;;;10.00;99.90;;;;;;5093547;28;20193;-73
2022/01/01 00:55:39;;;;;;;8.03;7.23;;;10.00;99.90;;;;;;5093680;28;20189;-71
2022/01/01 00:58:05;;;;;;;10.10;7.83;;;10.00;99.90;;;;;;5093547;28;20196;-72
2022/01/01 01:00:32;;;;;;;9.93;7.37;;;10.10;99.90;;;;;;5093896;28;20243;-72
2022/01/01 01:03:00;;;;;;;8.40;7.50;;;10.00;99.90;;;;;;5093594;28;20218;-72
2022/01/01 01:05:27;;;;;;;8.13;7.23;;;10.10;99.90;;;;;;5093225;28;20250;-72
2022/01/01 01:07:54;;;;;;;11.67;6.93;;;10.10;99.90;;;;;;5093202;28;20246;-72
2022/01/01 01:10:20;;;;;;;7.20;6.50;;;10.10;99.90;;;;;;5093677;28;20243;-72
2022/01/01 01:12:48;;;;;;;7.97;6.83;;;10.10;99.90;;;;;;5093396;28;20191;-71
2022/01/01 01:15:17;;;;;;;7.70;6.83;;;10.10;99.90;;;;;;5093035;28;20279;-72
2022/01/01 01:17:45;;;;;;;8.43;7.50;;;10.10;99.90;;;;;;5093257;28;20197;-72
2022/01/01 01:20:14;;;;;;;9.83;7.00;;;10.10;99.90;;;;;;5093058;28;20193;-72
2022/01/01 01:22:41;;;;;;;7.70;6.90;;;10.10;99.90;;;;;;5093135;28;20189;-72
2022/01/01 01:25:09;;;;;;;12.77;9.90;;;10.00;99.90;;;;;;5092851;28;20736;-72
2022/01/01 01:27:37;;;;;;;11.63;10.40;;;10.10;99.90;;;;;;5093339;28;20655;-72
2022/01/01 01:30:06;;;;;;;12.73;10.37;;;10.00;99.90;;;;;;5093687;28;20614;-71
2022/01/01 01:32:33;;;;;;;11.93;9.77;;;10.00;99.90;;;;;;5093223;28;20200;-72
2022/01/01 01:34:59;;;;;;;12.17;10.90;;;9.90;99.90;;;;;;5093748;28;20275;-71
2022/01/01 01:37:28;;;;;;;12.03;10.73;;;9.80;99.90;;;;;;5093952;28;20188;-72
2022/01/01 01:39:55;;;;;;;13.70;11.93;;;9.80;99.90;;;;;;5093690;28;20223;-72
2022/01/01 01:42:22;;;;;;;13.63;11.77;;;9.80;99.90;;;;;;5093100;28;20203;-72
2022/01/01 01:44:52;;;;;;;15.67;10.93;;;9.70;99.90;;;;;;5093135;28;20196;-72
2022/01/01 01:47:27;;;;;;;14.67;12.33;;;9.70;99.90;;;;;;5095055;28;20206;-73
2022/01/01 01:49:54;;;;;;;13.70;10.93;;;9.70;99.90;;;;;;5095000;28;20274;-72
2022/01/01 01:52:22;;;;;;;16.67;12.20;;;9.70;99.90;;;;;;5093091;28;20192;-71
2022/01/01 01:54:51;;;;;;;13.27;11.50;;;9.70;99.90;;;;;;5092738;28;20273;-73
2022/01/01 01:57:18;;;;;;;13.60;11.47;;;9.70;99.90;;;;;;5092613;28;20217;-72
2022/01/01 01:59:45;;;;;;;15.47;12.47;;;9.70;99.90;;;;;;5092892;28;20185;-71
2022/01/01 02:02:13;;;;;;;15.47;12.63;;;9.60;99.90;;;;;;5094285;28;20269;-72
2022/01/01 02:04:40;;;;;;;15.77;12.33;;;9.70;99.90;;;;;;5094838;28;20196;-72
2022/01/01 02:07:07;;;;;;;14.40;12.33;;;9.60;99.90;;;;;;5094224;28;20220;-72
2022/01/01 02:09:35;;;;;;;15.67;12.23;;;9.60;99.90;;;;;;5097345;28;20518;-72
2022/01/01 02:12:04;;;;;;;14.70;11.80;;;9.60;99.90;;;;;;5093037;28;20193;-71
2022/01/01 02:14:47;;;;;;;18.23;12.93;;;9.60;99.90;;;;;;5093081;28;20196;-72
2022/01/01 02:17:14;;;;;;;14.97;12.33;;;9.60;99.90;;;;;;5092640;28;20188;-72
2022/01/01 02:19:47;;;;;;;16.03;13.30;;;9.50;99.90;;;;;;5093064;28;20188;-72
2022/01/01 02:22:15;;;;;;;14.97;12.77;;;9.50;99.90;;;;;;5092369;28;20185;-73
2022/01/01 02:24:41;;;;;;;17.37;13.27;;;9.50;99.90;;;;;;5092422;28;20664;-71
2022/01/01 02:27:08;;;;;;;15.87;13.20;;;9.60;99.90;;;;;;5092172;28;20687;-72
2022/01/01 02:29:35;;;;;;;14.80;13.20;;;9.50;99.90;;;;;;5092447;28;20189;-73
2022/01/01 02:32:02;;;;;;;15.97;13.43;;;9.50;99.90;;;;;;5092382;28;20189;-73
2022/01/01 02:34:29;;;;;;;12.83;11.43;;;9.50;99.90;;;;;;5092560;28;20188;-72
2022/01/01 02:36:55;;;;;;;15.83;12.53;;;9.50;99.90;;;;;;5092260;28;20721;-73
2022/01/01 02:39:24;;;;;;;14.23;12.60;;;9.50;99.90;;;;;;5092406;28;20199;-72
2022/01/01 02:41:54;;;;;;;15.07;13.30;;;9.50;99.90;;;;;;5092456;28;20241;-72
2022/01/01 02:44:21;;;;;;;14.80;12.77;;;9.50;99.90;;;;;;5094988;28;20196;-73
2022/01/01 02:46:48;;;;;;;15.13;12.80;;;9.50;99.90;;;;;;5096169;28;20220;-73
2022/01/01 02:49:15;;;;;;;15.17;11.80;;;9.40;99.90;;;;;;5096218;28;20197;-72
2022/01/01 02:51:41;;;;;;;14.70;12.87;;;9.40;99.90;;;;;;5096050;28;20552;-72
2022/01/01 02:54:08;;;;;;;15.47;12.67;;;9.40;99.90;;;;;;5096222;28;20197;-73
2022/01/01 02:56:37;;;;;;;14.73;13.20;;;9.40;99.90;;;;;;5096296;28;20188;-73
2022/01/01 02:59:04;;;;;;;15.83;13.43;;;9.40;99.90;;;;;;5096110;28;20192;-73
2022/01/01 03:01:31;;;;;;;17.23;12.97;;;9.40;99.90;;;;;;5095639;28;20695;-72
2022/01/01 03:03:57;;;;;;;15.23;12.70;;;9.50;99.90;;;;;;5095836;28;20245;-71
2022/01/01 03:06:26;;;;;;;15.57;12.67;;;9.50;99.90;;;;;;5095996;28;20265;-71
2022/01/01 03:08:55;;;;;;;17.90;13.53;;;9.50;99.90;;;;;;5096484;28;20280;-72
2022/01/01 03:11:21;;;;;;;17.57;13.13;;;9.50;99.90;;;;;;5095906;28;20228;-72
2022/01/01 03:13:50;;;;;;;13.73;11.60;;;9.50;99.90;;;;;;5095746;28;20705;-73
2022/01/01 03:16:16;;;;;;;14.27;11.90;;;9.50;99.90;;;;;;5095674;28;20196;-71
2022/01/01 03:18:43;;;;;;;15.30;12.07;;;9.50;99.90;;;;;;5095721;28;20249;-71
2022/01/01 03:21:10;;;;;;;14.50;12.50;;;9.50;99.90;;;;;;5095309;28;20659;-72
2022/01/01 03:23:36;;;;;;;15.33;11.87;;;9.50;99.90;;;;;;5095584;28;20192;-71
2022/01/01 03:26:03;;;;;;;14.83;11.87;;;9.50;99.90;;;;;;5095676;28;20220;-72
2022/01/01 03:28:30;;;;;;;15.87;11.80;;;9.50;99.90;;;;;;5095651;28;20200;-72
2022/01/01 03:30:58;;;;;;;13.97;11.87;;;9.50;99.90;;;;;;5095708;28;20242;-72
2022/01/01 03:33:25;;;;;;;14.73;12.13;;;9.50;99.90;;;;;;5096120;28;20200;-72
2022/01/01 03:35:53;;;;;;;15.30;12.00;;;9.50;99.90;;;;;;5095822;28;20246;-72
2022/01/01 03:38:20;;;;;;;13.13;11.73;;;9.40;99.90;;;;;;5095871;28;20227;-72
2022/01/01 03:40:46;;;;;;;15.37;11.50;;;9.40;99.90;;;;;;5095253;28;20598;-72
2022/01/01 03:43:13;;;;;;;15.00;11.57;;;9.40;99.90;;;;;;5094918;28;20253;-71
2022/01/01 03:45:40;;;;;;;13.60;11.30;;;9.50;99.90;;;;;;5094975;28;20242;-72
2022/01/01 03:48:08;;;;;;;15.27;12.77;;;9.50;99.90;;;;;;5095246;28;20230;-71
2022/01/01 03:50:35;;;;;;;15.57;11.30;;;9.50;99.90;;;;;;5095186;28;20249;-72
2022/01/01 03:53:01;;;;;;;13.57;11.10;;;9.50;99.90;;;;;;5094776;28;20195;-73
2022/01/01 03:55:28;;;;;;;14.13;12.23;;;9.50;99.90;;;;;;5094860;28;20235;-72
2022/01/01 03:57:55;;;;;;;14.40;12.13;;;9.50;99.90;;;;;;5095321;28;20258;-72
2022/01/01 04:00:22;;;;;;;13.10;11.40;;;9.50;99.90;;;;;;5094700;28;20238;-72
2022/01/01 04:02:48;;;;;;;16.00;12.10;;;9.50;99.90;;;;;;5094506;28;20310;-72
2022/01/01 04:05:16;;;;;;;14.30;12.00;;;9.50;99.90;;;;;;5095128;28;20192;-73
2022/01/01 04:07:43;;;;;;;13.33;11.70;;;9.50;99.90;;;;;;5093684;28;20749;-72
2022/01/01 04:10:10;;;;;;;15.47;12.70;;;9.50;99.90;;;;;;5095107;28;20197;-72
2022/01/01 04:12:37;;;;;;;13.43;11.40;;;9.60;99.90;;;;;;5095009;28;20192;-72
2022/01/01 04:15:05;;;;;;;14.17;12.50;;;9.50;99.90;;;;;;5094394;28;20185;-72
2022/01/01 04:17:35;;;;;;;14.87;12.17;;;9.50;99.90;;;;;;5094584;28;20185;-73
2022/01/01 04:20:03;;;;;;;14.37;12.23;;;9.50;99.90;;;;;;5094705;28;20648;-72
2022/01/01 04:22:31;;;;;;;17.33;12.53;;;9.50;99.90;;;;;;5080202;28;20200;-72
2022/01/01 04:24:58;;;;;;;14.80;13.20;;;9.50;99.90;;;;;;5094703;28;20191;-72
2022/01/01 04:27:25;;;;;;;16.30;13.37;;;9.50;99.90;;;;;;5094204;28;20216;-72
2022/01/01 04:29:51;;;;;;;18.00;13.70;;;9.50;99.90;;;;;;5094719;28;20199;-74
2022/01/01 04:32:18;;;;;;;20.57;12.83;;;9.50;99.90;;;;;;5086152;28;20219;-76
2022/01/01 04:34:45;;;;;;;15.73;12.80;;;9.50;99.90;;;;;;5094269;28;20242;-73
2022/01/01 04:37:14;;;;;;;15.47;13.60;;;9.50;99.90;;;;;;5093750;28;20292;-72
2022/01/01 04:39:43;;;;;;;16.07;12.73;;;9.50;99.90;;;;;;5094008;28;20548;-73
2022/01/01 04:42:09;;;;;;;15.90;13.17;;;9.50;99.90;;;;;;5093973;28;20272;-72
2022/01/01 04:44:36;;;;;;;14.97;13.00;;;9.50;99.90;;;;;;5094500;28;20192;-72
2022/01/01 04:47:03;;;;;;;17.07;13.40;;;9.50;99.90;;;;;;5094146;28;20262;-72
2022/01/01 04:49:30;;;;;;;15.07;12.57;;;9.50;99.90;;;;;;5093847;28;20760;-72
2022/01/01 04:51:56;;;;;;;13.67;12.00;;;9.50;99.90;;;;;;5093865;28;20645;-72
2022/01/01 04:54:23;;;;;;;14.90;13.30;;;9.50;99.90;;;;;;5093948;28;20188;-73
2022/01/01 04:56:51;;;;;;;14.73;11.97;;;9.50;99.90;;;;;;5093623;28;20216;-70
2022/01/01 04:59:18;;;;;;;13.63;11.23;;;9.50;99.90;;;;;;5085627;28;20246;-72
2022/01/01 05:01:45;;;;;;;14.23;11.80;;;9.50;99.90;;;;;;5093581;28;20242;-71
2022/01/01 05:04:12;;;;;;;15.17;11.57;;;9.50;99.90;;;;;;5092993;28;20735;-73
2022/01/01 05:06:41;;;;;;;14.00;11.77;;;9.40;99.90;;;;;;5092353;28;20618;-72
2022/01/01 05:09:07;;;;;;;13.63;12.17;;;9.40;99.90;;;;;;5093298;28;20619;-72
2022/01/01 05:11:34;;;;;;;16.57;12.37;;;9.30;99.90;;;;;;5093122;28;20594;-73
2022/01/01 05:14:02;;;;;;;14.57;12.23;;;9.30;99.90;;;;;;5093478;28;20200;-73
2022/01/01 05:16:29;;;;;;;14.70;12.73;;;9.20;99.90;;;;;;5093288;28;20196;-73
2022/01/01 05:18:55;;;;;;;14.93;12.13;;;9.20;99.90;;;;;;5093279;28;20192;-73
2022/01/01 05:21:22;;;;;;;16.83;12.83;;;9.10;99.90;;;;;;5093220;28;20253;-73
2022/01/01 05:23:48;;;;;;;14.87;12.23;;;9.10;99.90;;;;;;5093087;28;20214;-72
2022/01/01 05:26:15;;;;;;;17.37;12.47;;;9.00;99.90;;;;;;5093067;28;20189;-73
2022/01/01 05:28:44;;;;;;;16.47;13.50;;;9.00;99.90;;;;;;5093346;28;20242;-72
2022/01/01 05:31:12;;;;;;;17.67;12.77;;;9.00;99.90;;;;;;5092857;28;20940;-73
2022/01/01 05:33:39;;;;;;;16.03;12.67;;;8.90;99.90;;;;;;5092730;28;20253;-72
2022/01/01 05:36:06;;;;;;;16.23;12.93;;;8.80;99.90;;;;;;5092643;28;20647;-72
2022/01/01 05:38:32;;;;;;;16.70;13.43;;;8.70;99.90;;;;;;5092933;28;20793;-72
2022/01/01 05:40:59;;;;;;;18.50;14.00;;;8.60;99.90;;;;;;5093044;28;20234;-72
2022/01/01 05:43:26;;;;;;;19.03;14.00;;;8.70;99.90;;;;;;5092928;28;20189;-73
2022/01/01 05:45:52;;;;;;;18.50;14.00;;;8.80;99.90;;;;;;5092932;28;20188;-73
2022/01/01 05:48:20;;;;;;;17.40;13.97;;;8.80;99.90;;;;;;5076455;28;20212;-72
2022/01/01 05:50:48;;;;;;;18.50;14.10;;;8.90;99.90;;;;;;5092673;28;20525;-73
2022/01/01 05:53:14;;;;;;;19.00;14.07;;;8.90;99.90;;;;;;5092816;28;20222;-73
2022/01/01 05:55:41;;;;;;;17.37;13.00;;;9.00;99.90;;;;;;5092899;28;20196;-73
2022/01/01 05:58:08;;;;;;;16.90;13.87;;;9.00;99.90;;;;;;5092690;28;20192;-72
2022/01/01 06:00:35;;;;;;;17.33;12.57;;;9.00;99.90;;;;;;5092523;28;20671;-73
2022/01/01 06:03:02;;;;;;;16.83;13.17;;;8.90;99.90;;;;;;5092447;28;20238;-73
2022/01/01 06:05:31;;;;;;;15.27;12.40;;;9.00;99.90;;;;;;5092578;28;20590;-72
2022/01/01 06:07:59;;;;;;;14.83;11.90;;;9.00;99.90;;;;;;5092462;28;20227;-72
2022/01/01 06:10:27;;;;;;;14.97;11.90;;;9.00;99.90;;;;;;5092635;28;20237;-73
2022/01/01 06:12:54;;;;;;;13.47;11.60;;;9.00;99.90;;;;;;5092515;28;20215;-72
2022/01/01 06:15:21;;;;;;;12.10;10.90;;;9.00;99.90;;;;;;5092580;28;20269;-72
2022/01/01 06:17:48;;;;;;;14.37;10.87;;;9.00;99.90;;;;;;5094243;28;20249;-72
2022/01/01 06:20:15;;;;;;;11.97;10.73;;;9.00;99.90;;;;;;5096752;28;20245;-73
2022/01/01 06:22:43;;;;;;;11.80;10.60;;;9.00;99.90;;;;;;5096881;28;20196;-73
2022/01/01 06:25:10;;;;;;;13.83;10.93;;;9.00;99.90;;;;;;5096533;28;20192;-73
2022/01/01 06:27:37;;;;;;;13.27;10.87;;;9.00;99.90;;;;;;5096655;28;20208;-71
2022/01/01 06:30:04;;;;;;;12.97;10.47;;;9.00;99.90;;;;;;5096563;28;20189;-73
2022/01/01 06:32:31;;;;;;;11.97;9.60;;;9.00;99.90;;;;;;5096382;28;20192;-71
2022/01/01 06:34:58;;;;;;;13.33;9.90;;;9.00;99.90;;;;;;5096267;28;20279;-72
2022/01/01 06:37:25;;;;;;;11.30;9.10;;;9.10;99.90;;;;;;5096531;28;20196;-72
2022/01/01 06:39:53;;;;;;;10.17;8.90;;;9.10;99.90;;;;;;5096245;28;20195;-72
2022/01/01 06:42:19;;;;;;;12.17;9.17;;;9.20;99.90;;;;;;5096361;28;20218;-72
2022/01/01 06:44:49;;;;;;;11.13;8.70;;;9.20;99.90;;;;;;5096235;28;20196;-73
2022/01/01 06:47:16;;;;;;;9.77;8.77;;;9.30;99.90;;;;;;5095838;28;20236;-72
2022/01/01 06:49:43;;;;;;;11.70;8.73;;;9.30;99.90;;;;;;5096134;28;20648;-72
2022/01/01 06:52:09;;;;;;;12.30;9.70;;;9.30;99.90;;;;;;5096197;28;20204;-72
2022/01/01 06:54:36;;;;;;;11.60;9.93;;;9.30;99.90;;;;;;5096217;28;20210;-72
2022/01/01 06:57:04;;;;;;;11.97;9.87;;;9.30;99.90;;;;;;5095813;28;20245;-73
2022/01/01 06:59:31;;;;;;;12.27;9.47;;;9.30;99.90;;;;;;5095905;28;20250;-72
2022/01/01 07:01:58;;;;;;;11.23;9.10;;;9.30;99.90;;;;;;5095858;28;20220;-72
2022/01/01 07:04:24;;;;;;;10.27;9.17;;;9.30;99.90;;;;;;5096063;28;20218;-73
2022/01/01 07:06:51;;;;;;;11.17;9.30;;;9.30;99.90;;;;;;5095929;28;20197;-72
2022/01/01 07:09:18;;;;;;;11.83;9.13;;;9.30;99.90;;;;;;5079311;28;20242;-73
2022/01/01 07:11:45;;;;;;;20.57;13.23;;;9.40;99.90;;;;;;5095892;28;20217;-73
2022/01/01 07:14:13;;;;;;;13.17;9.80;;;9.30;99.90;;;;;;5095810;28;20200;-73
2022/01/01 07:16:39;;;;;;;11.43;9.60;;;9.30;99.90;;;;;;5095861;28;20184;-72
2022/01/01 07:19:06;;;;;;;13.00;9.87;;;9.40;99.90;;;;;;5095778;28;20192;-73
2022/01/01 07:21:33;;;;;;;13.63;11.50;;;9.30;99.90;;;;;;5095303;28;20658;-73
2022/01/01 07:23:59;;;;;;;12.97;9.60;;;9.40;99.90;;;;;;5095444;28;20245;-72
2022/01/01 07:26:26;;;;;;;12.57;9.97;;;9.40;99.90;;;;;;5095560;28;20276;-72
2022/01/01 07:28:53;;;;;;;25.00;19.43;;;9.40;99.90;;;;;;5095450;28;20212;-71
2022/01/01 07:31:21;;;;;;;12.07;9.17;;;9.40;99.90;;;;;;5095974;28;20276;-71
2022/01/01 07:33:47;;;;;;;11.50;9.27;;;9.40;99.90;;;;;;5095874;28;20196;-72
2022/01/01 07:36:14;;;;;;;11.57;10.37;;;9.40;99.90;;;;;;5095218;28;20196;-71
2022/01/01 07:38:41;;;;;;;14.20;11.50;;;9.40;99.90;;;;;;5095487;28;20192;-71
2022/01/01 07:41:07;;;;;;;13.20;10.70;;;9.40;99.90;;;;;;5095303;28;20189;-72
2022/01/01 07:43:34;;;;;;;13.40;10.57;;;9.40;99.90;;;;;;5095325;28;20196;-72
2022/01/01 07:46:00;;;;;;;15.47;9.87;;;9.40;99.90;;;;;;5095106;28;20196;-73
2022/01/01 07:48:28;;;;;;;11.90;9.97;;;9.40;99.90;;;;;;5094992;28;20223;-72
2022/01/01 07:50:55;;;;;;;12.63;9.47;;;9.40;99.90;;;;;;5094980;28;20413;-72
2022/01/01 07:53:22;;;;;;;13.50;9.63;;;9.40;99.90;;;;;;5094974;28;20283;-73
2022/01/01 07:55:48;;;;;;;12.33;9.40;;;9.50;99.90;;;;;;5094867;28;20196;-73
2022/01/01 07:58:15;;;;;;;10.87;9.60;;;9.40;99.90;;;;;;5094889;28;20610;-73
2022/01/01 08:00:42;;;;;;;14.00;9.93;;;9.50;99.90;;;;;;5094510;28;20558;-72
2022/01/01 08:03:11;;;;;;;13.67;10.07;;;9.50;99.90;;;;;;5094651;28;20250;-73
2022/01/01 08:05:39;;;;;;;14.17;10.50;;;9.50;99.90;;;;;;5094745;28;20579;-72
2022/01/01 08:08:06;;;;;;;15.67;11.27;;;9.60;99.90;;;;;;5094545;28;20615;-73
2022/01/01 08:10:34;;;;;;;13.27;10.00;;;9.60;99.90;;;;;;5095015;28;20248;-73
2022/01/01 08:13:01;;;;;;;14.73;10.10;;;9.60;99.90;;;;;;5094532;28;20200;-72
2022/01/01 08:15:28;;;;;;;12.57;10.10;;;9.70;99.90;;;;;;5094831;28;20204;-73
2022/01/01 08:17:54;;;;;;;12.20;9.20;;;9.70;99.90;;;;;;5094427;28;20614;-73
2022/01/01 08:20:21;;;;;;;13.87;9.73;;;9.70;99.90;;;;;;5094295;28;20193;-72
2022/01/01 08:22:49;;;;;;;11.73;9.57;;;9.70;99.90;;;;;;5094229;28;20583;-72
2022/01/01 08:25:16;;;;;;;12.07;9.73;;;9.70;99.90;;;;;;5094351;28;20189;-71
2022/01/01 08:27:43;;;;;;;14.27;10.07;;;9.70;99.90;;;;;;5094311;28;20222;-73
2022/01/01 08:30:13;;;;;;;13.77;9.90;;;9.70;99.90;;;;;;5093885;28;20711;-72
2022/01/01 08:32:40;;;;;;;12.30;10.17;;;9.80;99.90;;;;;;5094084;28;20193;-72
2022/01/01 08:35:08;;;;;;;12.93;9.87;;;9.80;99.90;;;;;;5093912;28;20188;-72
2022/01/01 08:37:34;;;;;;;13.30;9.80;;;9.80;99.90;;;;;;5094064;28;20238;-72
2022/01/01 08:40:02;;;;;;;12.50;10.63;;;9.90;99.90;;;;;;5093890;28;20185;-72
2022/01/01 08:42:29;;;;;;;13.27;10.20;;;9.90;99.90;;;;;;5093323;28;20234;-73
2022/01/01 08:44:56;;;;;;;12.43;10.20;;;9.90;99.90;;;;;;5093928;28;20192;-72
2022/01/01 08:47:26;;;;;;;12.77;9.93;;;9.90;99.90;;;;;;5093602;28;20330;-72
2022/01/01 08:49:54;;;;;;;13.43;10.30;;;9.90;99.90;;;;;;5093625;28;20686;-72
2022/01/01 08:52:21;;;;;;;11.47;9.90;;;9.90;99.90;;;;;;5085900;28;20192;-72
2022/01/01 08:54:48;;;;;;;17.47;13.57;;;9.90;99.90;;;;;;5093827;28;20295;-72
2022/01/01 08:57:16;;;;;;;14.13;10.77;;;10.00;99.90;;;;;;5093499;28;20265;-72
2022/01/01 08:59:43;;;;;;;13.70;11.10;;;10.00;99.90;;;;;;5093682;28;20218;-72
2022/01/01 09:02:09;;;;;;;13.60;10.90;;;10.00;99.90;;;;;;5093087;28;20740;-72
2022/01/01 09:04:37;;;;;;;15.30;10.67;;;9.90;99.90;;;;;;5093567;28;20226;-72
2022/01/01 09:07:04;;;;;;;13.63;10.33;;;10.00;99.90;;;;;;5093283;28;20192;-72
2022/01/01 09:09:31;;;;;;;15.80;10.23;;;10.00;99.90;;;;;;5092956;28;20606;-72
2022/01/01 09:11:57;;;;;;;12.73;10.37;;;10.00;99.90;;;;;;5093433;28;20222;-72
2022/01/01 09:14:25;;;;;;;13.17;10.27;;;10.00;99.90;;;;;;5093429;28;20185;-71
2022/01/01 09:16:52;;;;;;;13.23;10.23;;;10.00;99.90;;;;;;5090706;28;20257;-71
2022/01/01 09:19:19;;;;;;;13.23;10.47;;;10.10;99.90;;;;;;5092749;28;20196;-71
2022/01/01 09:21:46;;;;;;;12.97;9.90;;;10.10;99.90;;;;;;5093090;28;20188;-72
2022/01/01 09:24:13;;;;;;;11.87;9.27;;;10.10;99.90;;;;;;5092901;28;20192;-73
2022/01/01 09:26:39;;;;;;;15.70;10.07;;;10.10;99.90;;;;;;5092673;28;20196;-73
2022/01/01 09:29:09;;;;;;;14.10;10.17;;;10.10;99.90;;;;;;5092669;28;20212;-73
2022/01/01 09:31:38;;;;;;;12.17;9.93;;;10.10;99.90;;;;;;5092528;28;20671;-74
2022/01/01 09:34:05;;;;;;;13.93;9.90;;;10.20;99.90;;;;;;5092524;28;20269;-73
2022/01/01 09:36:32;;;;;;;13.00;9.73;;;10.10;99.90;;;;;;5092922;28;20196;-72
2022/01/01 09:38:58;;;;;;;14.17;10.17;;;10.10;99.90;;;;;;5092701;28;20189;-72
2022/01/01 09:41:25;;;;;;;13.00;8.77;;;10.20;99.90;;;;;;5092737;28;20185;-72
2022/01/01 09:43:54;;;;;;;12.77;10.23;;;10.20;99.90;;;;;;5092475;28;20196;-72
2022/01/01 09:46:21;;;;;;;12.80;9.63;;;10.30;99.90;;;;;;5078498;28;20204;-72
2022/01/01 09:48:51;;;;;;;12.90;9.87;;;10.30;99.90;;;;;;5092360;28;20610;-71
2022/01/01 09:51:17;;;;;;;14.97;10.30;;;10.30;99.90;;;;;;5092462;28;20188;-72
2022/01/01 09:53:44;;;;;;;13.27;9.10;;;10.30;99.90;;;;;;5092256;28;20192;-71
2022/01/01 09:56:10;;;;;;;27.80;18.07;;;10.30;99.90;;;;;;5092540;28;20260;-72
2022/01/01 09:58:38;;;;;;;17.07;13.13;;;10.30;99.90;;;;;;5092294;28;20602;-72
2022/01/01 10:01:07;;;;;;;12.63;9.30;;;10.40;99.90;;;;;;5092453;28;20231;-72
2022/01/01 10:03:37;;;;;;;17.67;12.83;;;10.50;99.90;;;;;;5092456;28;20583;-72
2022/01/01 10:06:08;;;;;;;13.23;10.50;;;10.50;99.90;;;;;;5092676;28;20196;-72
2022/01/01 10:08:40;;;;;;;13.83;10.47;;;10.40;99.90;;;;;;5092573;28;20220;-72
2022/01/01 10:11:07;;;;;;;18.43;11.70;;;10.50;99.90;;;;;;5092410;28;20644;-71
2022/01/01 10:13:36;;;;;;;14.50;11.00;;;10.60;99.90;;;;;;5092574;28;20271;-71
2022/01/01 10:16:05;;;;;;;15.87;12.70;;;10.60;99.90;;;;;;5092479;28;20192;-71
2022/01/01 10:18:33;;;;;;;12.60;9.50;;;10.60;99.90;;;;;;5092629;28;20203;-72
2022/01/01 10:21:02;;;;;;;12.20;10.10;;;10.60;99.90;;;;;;5092318;28;20257;-71
2022/01/01 10:23:32;;;;;;;11.10;9.17;;;10.70;99.90;;;;;;5092427;28;20199;-73
2022/01/01 10:29:07;;;;;;;32.33;19.80;;;10.70;99.90;;;;;;5092151;28;20230;-71
2022/01/01 10:31:34;;;;;;;11.07;8.80;;;10.80;99.90;;;;;;5092275;28;20249;-72
2022/01/01 10:34:01;;;;;;;12.43;8.90;;;10.80;99.90;;;;;;5092065;28;20220;-73
2022/01/01 10:36:31;;;;;;;14.20;9.90;;;10.80;99.90;;;;;;5092507;28;20329;-73
2022/01/01 10:39:09;;;;;;;11.90;8.87;;;10.90;99.90;;;;;;5092170;28;20195;-73
2022/01/01 10:41:45;;;;;;;11.33;9.10;;;11.00;99.90;;;;;;5092306;28;20193;-72
2022/01/01 10:44:13;;;;;;;10.57;8.00;;;11.00;99.90;;;;;;5091955;28;20196;-71
2022/01/01 10:46:40;;;;;;;10.70;7.80;;;11.00;99.90;;;;;;5092036;28;20275;-71
2022/01/01 10:49:30;;;;;;;12.67;9.50;;;10.90;99.90;;;;;;5092128;28;20228;-72
2022/01/01 10:52:00;;;;;;;12.03;9.60;;;10.90;99.90;;;;;;5092027;28;20220;-72
2022/01/01 10:54:28;;;;;;;16.70;12.40;;;10.90;99.90;;;;;;5092147;28;20644;-73
2022/01/01 10:56:55;;;;;;;11.20;8.43;;;10.80;99.90;;;;;;5091778;28;20197;-72
2022/01/01 10:59:30;;;;;;;18.73;14.70;;;10.80;99.90;;;;;;5084404;28;20261;-73
2022/01/01 11:01:57;;;;;;;25.83;20.33;;;10.70;99.90;;;;;;5091743;28;20381;-72
2022/01/01 11:04:24;;;;;;;16.77;13.33;;;10.90;99.90;;;;;;5092615;28;20192;-72
2022/01/01 11:06:51;;;;;;;13.90;11.00;;;11.00;99.90;;;;;;5095619;28;20246;-71
2022/01/01 11:09:19;;;;;;;12.63;10.20;;;10.90;99.90;;;;;;5095351;28;20216;-71
2022/01/01 11:11:48;;;;;;;11.37;9.03;;;11.00;99.90;;;;;;5095450;28;20188;-71
2022/01/01 11:14:16;;;;;;;10.03;7.80;;;11.10;99.90;;;;;;5095563;28;20195;-71
2022/01/01 11:16:44;;;;;;;12.00;9.33;;;11.20;99.90;;;;;;5095040;28;20197;-70
2022/01/01 11:19:11;;;;;;;10.83;8.40;;;11.20;99.90;;;;;;5095317;28;20571;-70
2022/01/01 11:21:38;;;;;;;9.43;7.57;;;11.10;99.90;;;;;;5095224;28;20205;-70
2022/01/01 11:24:07;;;;;;;9.83;7.93;;;11.20;99.90;;;;;;5094910;28;20251;-70
2022/01/01 11:26:34;;;;;;;9.83;7.57;;;11.30;99.90;;;;;;5095445;28;20241;-69
2022/01/01 11:29:03;;;;;;;12.23;7.67;;;11.30;99.90;;;;;;5094368;28;20277;-70
2022/01/01 11:31:31;;;;;;;19.47;14.80;;;11.40;99.90;;;;;;5095338;28;20192;-73
2022/01/01 11:34:00;;;;;;;11.43;8.37;;;11.40;99.90;;;;;;5095184;28;20219;-70
2022/01/01 11:36:31;;;;;;;11.40;9.10;;;11.30;99.90;;;;;;5097054;28;20219;-71
2022/01/01 11:38:59;;;;;;;10.77;9.17;;;11.30;99.90;;;;;;5095177;28;20189;-71
2022/01/01 11:41:38;;;;;;;14.73;11.80;;;11.20;99.90;;;;;;5094507;28;20198;-71
2022/01/01 11:44:26;;;;;;;22.43;19.67;;;11.20;99.90;;;;;;5094683;28;20648;-71
2022/01/01 11:46:58;;;;;;;10.53;9.10;;;11.20;99.90;;;;;;5094700;28;20196;-71
2022/01/01 11:49:27;;;;;;;13.20;8.70;;;11.40;99.90;;;;;;5094746;28;20571;-71
2022/01/01 11:51:54;;;;;;;13.17;9.37;;;11.30;99.90;;;;;;5094840;28;20202;-71
2022/01/01 11:54:24;;;;;;;11.77;8.90;;;11.40;99.90;;;;;;5078655;28;20192;-71
2022/01/01 11:57:18;;;;;;;12.40;9.00;;;11.50;99.90;;;;;;5094601;28;20195;-70
2022/01/01 11:59:52;;;;;;;11.47;7.87;;;11.60;99.90;;;;;;5094510;28;20724;-76
2022/01/01 12:02:36;;;;;;;13.43;8.90;;;11.50;99.90;;;;;;5094470;28;20225;-70
2022/01/01 12:05:18;;;;;;;9.37;7.90;;;11.50;99.90;;;;;;5094397;28;20200;-71
2022/01/01 12:07:48;;;;;;;8.70;7.40;;;11.60;99.90;;;;;;5094290;28;20663;-70
2022/01/01 12:10:18;;;;;;;10.03;7.67;;;11.50;99.90;;;;;;5094284;28;20227;-69
2022/01/01 12:12:49;;;;;;;11.47;9.43;;;11.40;99.90;;;;;;5094210;28;20656;-70
2022/01/01 12:15:42;;;;;;;11.23;8.73;;;11.60;99.90;;;;;;5093777;28;20572;-71
2022/01/01 12:18:11;;;;;;;9.17;7.60;;;11.50;99.90;;;;;;5094323;28;20283;-72
2022/01/01 12:20:39;;;;;;;11.83;7.77;;;11.60;99.90;;;;;;5093899;28;20657;-71
2022/01/01 12:23:08;;;;;;;9.37;7.13;;;11.70;99.90;;;;;;5094393;28;20203;-72
2022/01/01 12:25:37;;;;;;;10.53;8.33;;;11.60;99.90;;;;;;5094229;28;20188;-72
2022/01/01 12:28:06;;;;;;;8.23;6.77;;;11.60;99.90;;;;;;5093917;28;20212;-71
2022/01/01 12:30:43;;;;;;;7.50;6.67;;;11.60;99.90;;;;;;5093729;28;20216;-71
2022/01/01 12:33:12;;;;;;;9.60;7.00;;;11.70;99.90;;;;;;5094243;28;20265;-74
2022/01/01 12:35:45;;;;;;;8.93;7.80;;;11.70;99.90;;;;;;5093925;28;20196;-71
2022/01/01 12:38:14;;;;;;;9.20;6.50;;;11.70;99.90;;;;;;5093706;28;20192;-71
2022/01/01 12:40:59;;;;;;;12.47;9.60;;;11.70;99.90;;;;;;5093884;28;20193;-71
2022/01/01 12:43:27;;;;;;;7.57;5.40;;;11.60;99.90;;;;;;5094120;28;20196;-71
2022/01/01 12:45:57;;;;;;;7.47;5.47;;;11.50;99.90;;;;;;5093695;28;20204;-72